Time;durP1;ratioP1;P1;durP2;ratioP2;P2;SDS_P1;SDS_P2;PMS_P1;PMS_P2;Temp;Humidity;BMP_temperature;BMP_pressure;BME280_temperature;BME280_humidity;BME280_pressure;Samples;Min_cycle;Max_cycle;Signal;HPM_P1;HPM_P2
2022/04/12 00:01:14;;;;;;;6.07;5.55;;;;;;;10.27;49.73;98827.00;5071171;28;20048;-70
2022/04/12 00:03:40;;;;;;;6.50;5.90;;;;;;;10.27;49.60;98819.06;5089823;28;20101;-70
2022/04/12 00:06:06;;;;;;;5.70;5.20;;;;;;;10.38;49.44;98831.09;5039551;28;20043;-71
2022/04/12 00:08:32;;;;;;;6.10;5.43;;;;;;;10.15;49.65;98793.94;5056372;28;20044;-69
2022/04/12 00:10:59;;;;;;;6.57;5.90;;;;;;;10.34;49.57;98794.47;5073076;28;20036;-69
2022/04/12 00:13:25;;;;;;;5.85;5.10;;;;;;;10.24;49.53;98773.47;5072886;28;20500;-69
2022/04/12 00:15:52;;;;;;;6.43;5.72;;;;;;;10.21;49.72;98776.47;5072689;28;20048;-70
2022/04/12 00:21:03;;;;;;;5.97;5.45;;;;;;;10.02;49.93;98737.13;5088386;28;20036;-72
2022/04/12 00:23:30;;;;;;;6.50;5.68;;;;;;;10.13;49.97;98760.63;5037130;28;20051;-71
2022/04/12 00:25:59;;;;;;;6.28;5.68;;;;;;;10.05;49.98;98773.91;5054758;28;20056;-71
2022/04/12 00:28:25;;;;;;;6.00;5.40;;;;;;;10.06;50.11;98779.03;5070756;28;20465;-72
2022/04/12 00:30:59;;;;;;;6.78;5.85;;;;;;;10.02;50.02;98772.41;5053646;28;20044;-71
2022/04/12 00:33:25;;;;;;;6.63;5.45;;;;;;;9.92;50.47;98747.97;5055097;28;20051;-73
2022/04/12 00:35:53;;;;;;;5.93;5.30;;;;;;;10.10;50.28;98751.19;5070808;28;20040;-72
2022/04/12 00:38:22;;;;;;;6.22;5.63;;;;;;;9.94;50.24;98738.00;5072762;28;20051;-70
2022/04/12 00:40:49;;;;;;;6.50;5.90;;;;;;;9.99;50.70;98743.59;5056102;28;20556;-71
2022/04/12 00:43:18;;;;;;;5.53;5.03;;;;;;;10.06;50.59;98715.38;5055678;28;20389;-71
2022/04/12 00:45:45;;;;;;;5.63;5.03;;;;;;;9.97;50.62;98719.09;5055864;28;20067;-71
2022/04/12 00:48:12;;;;;;;5.97;4.80;;;;;;;9.81;50.63;98692.66;5090566;28;20044;-71
2022/04/12 00:50:39;;;;;;;5.45;4.95;;;;;;;9.97;50.49;98723.56;5072560;28;20075;-72
2022/04/12 00:53:07;;;;;;;5.20;4.70;;;;;;;10.05;50.56;98729.66;5090158;28;20048;-71
2022/04/12 00:55:36;;;;;;;5.15;4.65;;;;;;;9.82;50.53;98701.47;5089430;28;20047;-72
2022/04/12 00:58:06;;;;;;;5.50;4.70;;;;;;;10.07;50.35;98727.66;5090659;28;20135;-71
2022/04/12 01:00:36;;;;;;;5.43;4.88;;;;;;;10.16;50.31;98723.94;5072976;28;20047;-72
2022/04/12 01:03:03;;;;;;;4.75;4.35;;;;;;;10.08;50.49;98728.50;5089069;28;20041;-72
2022/04/12 01:05:29;;;;;;;4.70;4.30;;;;;;;9.91;50.50;98703.88;5055434;28;20586;-72
2022/04/12 01:07:56;;;;;;;4.25;3.85;;;;;;;10.02;50.36;98723.88;5073964;28;20488;-71
2022/04/12 01:10:23;;;;;;;4.82;4.30;;;;;;;10.04;50.30;98729.81;5076188;28;20039;-71
2022/04/12 01:12:51;;;;;;;4.15;3.75;;;;;;;10.08;49.98;98707.28;5059312;28;20043;-71
2022/04/12 01:15:25;;;;;;;5.10;3.75;;;;;;;10.24;50.22;98733.66;5094226;28;20048;-72
2022/04/12 01:17:52;;;;;;;4.15;3.75;;;;;;;10.04;50.23;98712.06;5076435;28;20044;-73
2022/04/12 01:20:23;;;;;;;3.92;3.45;;;;;;;10.05;50.12;98699.63;5094225;28;20044;-72
2022/04/12 01:23:02;;;;;;;4.35;3.92;;;;;;;10.09;50.19;98698.28;5076291;28;20040;-73
2022/04/12 01:25:28;;;;;;;4.43;3.63;;;;;;;10.03;50.31;98721.03;5075995;28;20192;-72
2022/04/12 01:27:55;;;;;;;4.35;3.75;;;;;;;10.11;50.43;98714.88;5092300;28;20044;-72
2022/04/12 01:30:21;;;;;;;3.90;3.50;;;;;;;9.96;50.55;98708.66;5058994;28;20435;-72
2022/04/12 01:32:47;;;;;;;4.80;4.10;;;;;;;9.88;50.36;98693.63;5075657;28;20043;-72
2022/04/12 01:35:13;;;;;;;3.85;3.55;;;;;;;9.92;50.77;98689.59;5075551;28;20067;-74
2022/04/12 01:37:39;;;;;;;5.00;3.92;;;;;;;9.88;50.67;98675.06;5073531;28;20047;-73
2022/04/12 01:40:06;;;;;;;4.50;4.10;;;;;;;10.03;50.82;98688.38;5040195;28;20048;-72
2022/04/12 01:42:32;;;;;;;4.28;3.88;;;;;;;9.88;50.92;98679.53;5073319;28;20447;-71
2022/04/12 01:44:59;;;;;;;4.30;3.90;;;;;;;9.89;50.84;98679.34;5058128;28;20040;-73
2022/04/12 01:47:25;;;;;;;4.90;4.30;;;;;;;9.96;50.85;98698.03;5058658;28;20046;-72
2022/04/12 01:49:50;;;;;;;4.32;3.90;;;;;;;10.02;50.77;98705.28;5091899;28;20044;-71
2022/04/12 01:52:17;;;;;;;5.95;4.63;;;;;;;10.07;50.59;98700.31;5075066;28;20131;-71
2022/04/12 01:54:43;;;;;;;6.53;4.22;;;;;;;10.07;50.40;98687.88;5091579;28;20044;-71
2022/04/12 01:57:09;;;;;;;6.20;4.28;;;;;;;9.93;50.38;98662.06;5073230;28;20497;-74
2022/04/12 01:59:35;;;;;;;5.80;4.47;;;;;;;10.10;50.59;98681.41;5089709;28;20086;-72
2022/04/12 02:02:01;;;;;;;4.40;4.00;;;;;;;10.07;50.71;98687.88;5055974;28;20048;-71
2022/04/12 02:04:27;;;;;;;4.75;4.25;;;;;;;10.09;50.77;98688.53;5054398;28;20040;-70
2022/04/12 02:06:54;;;;;;;4.88;4.10;;;;;;;10.09;50.32;98696.47;5088346;28;20048;-70
2022/04/12 02:09:20;;;;;;;4.82;4.35;;;;;;;10.08;50.64;98684.22;5038440;28;20040;-70
2022/04/12 02:11:46;;;;;;;6.20;4.43;;;;;;;10.07;50.72;98677.25;5072937;28;20074;-72
2022/04/12 02:14:12;;;;;;;4.85;4.13;;;;;;;10.13;50.37;98665.94;5074274;28;20043;-73
2022/04/12 02:16:38;;;;;;;4.65;4.03;;;;;;;10.17;50.53;98666.41;5074490;28;20528;-72
2022/04/12 02:19:04;;;;;;;5.57;4.38;;;;;;;10.13;50.52;98675.72;5040674;28;20083;-72
2022/04/12 02:21:30;;;;;;;4.63;4.22;;;;;;;10.18;50.58;98673.34;5074755;28;20592;-71
2022/04/12 02:23:56;;;;;;;4.78;4.28;;;;;;;10.05;50.61;98660.69;5091402;28;20036;-72
2022/04/12 02:26:22;;;;;;;5.50;4.18;;;;;;;10.18;50.66;98673.34;5092481;28;20527;-72
2022/04/12 02:28:48;;;;;;;7.15;4.80;;;;;;;10.20;50.85;98682.78;5074438;28;20058;-73
2022/04/12 02:31:14;;;;;;;6.80;5.20;;;;;;;10.32;50.54;98695.66;5074816;28;20047;-73
2022/04/12 02:33:40;;;;;;;8.95;4.50;;;;;;;10.25;50.62;98676.94;5073305;28;20054;-72
2022/04/12 02:36:06;;;;;;;7.00;4.88;;;;;;;10.32;50.65;98671.75;5055808;28;20123;-72
2022/04/12 02:38:32;;;;;;;5.32;4.45;;;;;;;10.34;50.39;98667.91;5055255;28;20143;-70
2022/04/12 02:40:58;;;;;;;5.78;4.90;;;;;;;10.34;50.73;98683.00;5055186;28;20051;-73
2022/04/12 02:43:27;;;;;;;7.63;5.22;;;;;;;10.39;50.62;98686.78;5039437;28;20367;-72
2022/04/12 02:45:54;;;;;;;8.23;5.70;;;;;;;10.32;50.73;98679.72;5088625;28;20035;-71
2022/04/12 02:48:20;;;;;;;5.90;5.13;;;;;;;10.30;50.57;98671.94;5055247;28;20185;-71
2022/04/12 02:50:47;;;;;;;7.20;5.05;;;;;;;10.35;50.59;98674.06;5056896;28;20138;-71
2022/04/12 02:53:13;;;;;;;6.88;5.20;;;;;;;10.36;50.76;98681.00;5090252;28;20051;-72
2022/04/12 02:55:40;;;;;;;8.65;5.53;;;;;;;10.16;50.72;98660.25;5090804;28;20040;-71
2022/04/12 02:58:06;;;;;;;8.32;5.90;;;;;;;10.33;50.61;98682.19;5073786;28;20044;-72
2022/04/12 03:00:32;;;;;;;10.15;6.60;;;;;;;10.39;50.44;98691.25;5056929;28;20050;-73
2022/04/12 03:02:59;;;;;;;7.28;6.10;;;;;;;10.40;50.64;98674.31;5056634;28;20094;-73
2022/04/12 03:05:25;;;;;;;10.68;6.70;;;;;;;10.35;50.87;98652.81;5057010;28;20044;-72
2022/04/12 03:07:51;;;;;;;9.68;6.78;;;;;;;10.26;51.18;98665.31;5055954;28;20638;-70
2022/04/12 03:10:18;;;;;;;8.15;7.05;;;;;;;10.36;51.13;98676.53;5071677;28;20412;-70
2022/04/12 03:12:44;;;;;;;10.40;6.95;;;;;;;10.38;51.01;98673.69;5072421;28;20046;-72
2022/04/12 03:15:10;;;;;;;9.32;7.35;;;;;;;10.44;51.04;98675.63;5089452;28;20093;-72
2022/04/12 03:17:37;;;;;;;11.05;7.55;;;;;;;10.37;50.69;98638.34;5072559;28;20047;-72
2022/04/12 03:20:03;;;;;;;11.85;7.38;;;;;;;10.53;50.66;98671.88;5038888;28;20047;-71
2022/04/12 03:22:30;;;;;;;11.00;7.57;;;;;;;10.48;50.66;98676.91;5092291;28;20389;-73
2022/04/12 03:24:56;;;;;;;9.75;7.40;;;;;;;10.55;50.60;98676.00;5060442;28;20508;-73
2022/04/12 03:27:22;;;;;;;11.38;7.95;;;;;;;10.50;50.87;98675.69;5093691;28;20048;-72
2022/04/12 03:29:48;;;;;;;12.10;7.97;;;;;;;10.31;51.21;98662.97;5092963;28;20603;-72
2022/04/12 03:32:14;;;;;;;11.65;8.25;;;;;;;10.41;51.19;98678.63;5074702;28;20089;-73
2022/04/12 03:34:41;;;;;;;14.57;9.07;;;;;;;10.36;51.13;98671.22;5060020;28;20142;-72
2022/04/12 03:37:07;;;;;;;12.65;8.82;;;;;;;10.47;51.35;98685.88;5109923;28;20043;-72
2022/04/12 03:39:36;;;;;;;12.90;9.05;;;;;;;10.48;51.39;98684.88;5110092;28;20496;-72
2022/04/12 03:42:04;;;;;;;12.95;9.68;;;;;;;10.48;51.40;98666.28;5075440;28;20676;-72
2022/04/12 03:44:31;;;;;;;13.50;9.45;;;;;;;10.54;51.44;98677.00;5109768;28;20043;-72
2022/04/12 03:46:57;;;;;;;12.00;9.48;;;;;;;10.49;51.33;98681.19;5092949;28;20043;-72
2022/04/12 03:49:23;;;;;;;14.07;10.00;;;;;;;10.51;51.49;98665.91;5059250;28;20076;-72
2022/04/12 03:51:49;;;;;;;16.42;10.85;;;;;;;10.45;51.53;98674.59;5119851;27;20035;-72
2022/04/12 03:54:15;;;;;;;17.40;10.77;;;;;;;10.53;51.42;98674.53;5109642;28;20053;-74
2022/04/12 03:56:43;;;;;;;16.17;10.93;;;;;;;10.52;51.38;98683.50;5109949;28;20066;-70
2022/04/12 03:59:10;;;;;;;22.98;11.85;;;;;;;10.62;51.39;98676.94;5092664;28;20086;-73
2022/04/12 04:01:37;;;;;;;18.35;11.95;;;;;;;10.53;51.32;98682.50;5075336;28;20044;-73
2022/04/12 04:04:03;;;;;;;22.20;11.80;;;;;;;10.58;51.40;98693.41;5091858;28;20050;-72
2022/04/12 04:06:30;;;;;;;21.45;11.43;;;;;;;10.59;51.46;98703.00;5091418;28;20071;-71
2022/04/12 04:08:56;;;;;;;22.80;11.85;;;;;;;10.58;51.51;98688.91;5108396;28;20441;-73
2022/04/12 04:11:22;;;;;;;19.90;11.02;;;;;;;10.62;51.35;98692.03;5057510;28;20139;-74
2022/04/12 04:13:49;;;;;;;21.60;12.18;;;;;;;10.64;51.43;98687.38;5107835;28;20566;-73
2022/04/12 04:16:15;;;;;;;20.52;12.32;;;;;;;10.71;51.42;98696.25;5092536;28;20067;-73
2022/04/12 04:18:41;;;;;;;21.70;11.48;;;;;;;10.78;51.11;98703.31;5092571;28;20096;-72
2022/04/12 04:21:07;;;;;;;21.35;11.00;;;;;;;10.71;51.35;98696.25;5075582;28;20039;-73
2022/04/12 04:23:33;;;;;;;22.90;12.32;;;;;;;10.71;51.42;98720.16;5109074;28;20051;-72
2022/04/12 04:25:59;;;;;;;24.45;11.63;;;;;;;10.72;51.35;98684.59;5058349;28;20051;-72
2022/04/12 04:28:29;;;;;;;22.65;11.90;;;;;;;10.71;51.34;98694.44;5075804;28;20073;-74
2022/04/12 04:30:56;;;;;;;20.95;10.98;;;;;;;10.81;51.33;98697.63;5109509;28;20086;-72
2022/04/12 04:33:22;;;;;;;20.85;11.38;;;;;;;10.69;51.60;98692.94;5109018;28;20044;-69
2022/04/12 04:35:49;;;;;;;26.90;11.80;;;;;;;10.80;51.67;98698.66;5092274;28;20047;-71
2022/04/12 04:38:16;;;;;;;26.20;11.90;;;;;;;10.70;51.66;98692.75;5092573;28;20043;-75
2022/04/12 04:40:42;;;;;;;19.70;11.75;;;;;;;10.72;51.73;98693.41;5091802;28;20397;-70
2022/04/12 04:43:09;;;;;;;22.00;11.57;;;;;;;10.64;51.49;98669.59;5109795;28;20040;-74
2022/04/12 04:45:36;;;;;;;28.92;11.98;;;;;;;10.78;51.35;98687.38;5111171;28;20075;-72
2022/04/12 04:48:04;;;;;;;28.92;11.60;;;;;;;10.98;51.31;98674.38;5077417;28;20135;-72
2022/04/12 04:50:32;;;;;;;29.92;11.80;;;;;;;10.95;51.34;98690.66;5110908;27;20137;-72
2022/04/12 04:53:00;;;;;;;27.10;13.02;;;;;;;10.93;51.46;98685.53;5077773;28;20054;-79
2022/04/12 04:55:29;;;;;;;32.33;12.18;;;;;;;10.90;51.39;98691.22;5094507;28;20558;-73
2022/04/12 04:57:57;;;;;;;30.35;11.88;;;;;;;10.91;51.64;98678.78;5113066;28;20040;-72
2022/04/12 05:00:25;;;;;;;28.20;12.35;;;;;;;10.69;51.66;98650.44;5113234;28;20046;-72
2022/04/12 05:02:53;;;;;;;29.77;11.82;;;;;;;10.91;51.80;98668.16;5093499;28;20089;-70
2022/04/12 05:05:20;;;;;;;25.35;11.95;;;;;;;10.91;51.53;98681.44;5089516;28;20051;-70
2022/04/12 05:07:51;;;;;;;32.50;11.80;;;;;;;10.88;51.49;98645.44;5058025;28;20063;-73
2022/04/12 05:10:21;;;;;;;27.30;11.07;;;;;;;11.10;51.32;98671.06;5091827;28;20032;-71
2022/04/12 05:12:49;;;;;;;25.60;11.60;;;;;;;11.00;51.49;98673.19;5041658;28;20093;-74
2022/04/12 05:15:15;;;;;;;32.92;12.38;;;;;;;10.97;51.59;98691.31;5074255;28;20051;-73
2022/04/12 05:17:48;;;;;;;27.60;12.93;;;;;;;10.96;51.21;98652.50;5074186;28;20428;-72
2022/04/12 05:20:14;;;;;;;23.80;12.23;;;;;;;10.99;51.36;98684.00;5073921;28;20071;-73
2022/04/12 05:22:42;;;;;;;29.75;12.48;;;;;;;11.34;51.29;98693.84;5074345;28;20051;-72
2022/04/12 05:25:09;;;;;;;23.70;12.85;;;;;;;11.14;50.96;98696.28;5057616;28;20158;-73
2022/04/12 05:27:39;;;;;;;19.50;11.68;;;;;;;11.27;50.72;98712.38;5091169;28;20386;-73
2022/04/12 05:30:07;;;;;;;29.15;12.18;;;;;;;11.52;50.53;98719.03;5074146;28;20575;-73
2022/04/12 05:32:35;;;;;;;19.20;11.25;;;;;;;11.56;50.34;98722.16;5079051;28;20043;-74
2022/04/12 05:35:01;;;;;;;20.65;12.13;;;;;;;11.47;50.45;98720.63;5060844;28;20067;-72
2022/04/12 05:37:33;;;;;;;20.27;11.65;;;;;;;11.45;50.34;98704.03;5095168;28;20077;-73
2022/04/12 05:40:03;;;;;;;20.85;11.77;;;;;;;11.78;50.09;98719.38;5061168;28;20058;-73
2022/04/12 05:42:32;;;;;;;19.48;11.80;;;;;;;11.65;49.72;98723.72;5111353;28;20118;-73
2022/04/12 05:45:01;;;;;;;26.90;12.57;;;;;;;11.68;50.08;98723.34;5094930;28;20464;-73
2022/04/12 05:47:28;;;;;;;25.20;12.27;;;;;;;11.52;50.12;98691.63;5094148;28;20466;-74
2022/04/12 05:49:56;;;;;;;22.23;12.63;;;;;;;11.75;50.05;98708.28;5077056;28;20047;-73
2022/04/12 05:52:24;;;;;;;32.08;12.95;;;;;;;11.53;50.01;98672.81;5094103;28;20125;-73
2022/04/12 05:54:50;;;;;;;23.67;12.90;;;;;;;11.83;49.80;98706.34;5076766;28;20035;-70
2022/04/12 05:57:17;;;;;;;23.38;12.32;;;;;;;11.78;49.99;98686.63;5077364;28;20054;-73
2022/04/12 05:59:45;;;;;;;23.88;13.45;;;;;;;11.71;49.70;98659.97;5110658;28;20057;-73
2022/04/12 06:02:13;;;;;;;24.80;13.55;;;;;;;11.91;49.71;98684.13;5077452;28;20485;-75
2022/04/12 06:04:40;;;;;;;23.55;13.75;;;;;;;11.92;49.62;98683.09;5093488;28;20517;-74
2022/04/12 06:07:06;;;;;;;26.05;15.38;;;;;;;11.88;49.72;98672.00;5076791;28;20048;-74
2022/04/12 06:09:33;;;;;;;24.42;13.77;;;;;;;12.05;49.46;98693.88;5094158;28;20410;-74
2022/04/12 06:11:59;;;;;;;23.58;14.43;;;;;;;12.03;49.67;98693.25;5109900;28;20051;-74
2022/04/12 06:14:25;;;;;;;36.22;15.93;;;;;;;12.20;50.85;98691.97;5077967;28;20446;-71
2022/04/12 06:16:53;;;;;;;25.75;14.93;;;;;;;12.73;49.79;98691.34;5093406;28;20040;-72
2022/04/12 06:19:19;;;;;;;27.77;13.80;;;;;;;12.70;48.65;98649.13;5110466;28;20068;-73
2022/04/12 06:21:45;;;;;;;28.05;12.18;;;;;;;13.43;47.66;98708.03;5093139;28;20039;-75
2022/04/12 06:24:11;;;;;;;19.67;11.43;;;;;;;13.71;46.53;98702.56;5110451;28;20043;-73
2022/04/12 06:26:38;;;;;;;22.45;10.82;;;;;;;13.81;45.69;98708.34;5109921;28;20052;-74
2022/04/12 06:29:05;;;;;;;19.83;11.77;;;;;;;13.72;45.45;98700.72;5059926;28;20039;-74
2022/04/12 06:31:31;;;;;;;20.45;12.35;;;;;;;13.62;45.79;98705.63;5078344;28;20053;-74
2022/04/12 06:33:57;;;;;;;21.58;12.75;;;;;;;13.63;45.98;98716.09;5075730;28;20075;-72
2022/04/12 06:36:23;;;;;;;23.80;12.43;;;;;;;13.53;45.98;98716.47;5093339;28;20112;-71
2022/04/12 06:38:50;;;;;;;29.13;12.95;;;;;;;13.38;46.26;98706.94;5093600;28;20089;-73
2022/04/12 06:41:16;;;;;;;24.38;12.55;;;;;;;13.36;46.41;98715.16;5110805;28;20513;-73
2022/04/12 06:43:43;;;;;;;22.25;12.82;;;;;;;13.33;46.57;98714.75;5089072;28;20044;-71
2022/04/12 06:46:09;;;;;;;25.25;13.88;;;;;;;13.25;46.70;98713.03;5072949;28;20044;-71
2022/04/12 06:48:35;;;;;;;23.52;13.75;;;;;;;13.17;46.90;98718.56;5089442;28;20040;-72
2022/04/12 06:51:01;;;;;;;26.35;13.65;;;;;;;13.11;47.18;98710.50;5055763;28;20054;-71
2022/04/12 06:53:28;;;;;;;21.17;13.63;;;;;;;13.27;47.12;98731.50;5090833;28;20497;-69
2022/04/12 06:55:54;;;;;;;25.50;13.18;;;;;;;13.02;46.94;98693.84;5072529;28;20048;-68
2022/04/12 06:58:20;;;;;;;29.13;15.88;;;;;;;13.18;47.21;98722.84;5089533;28;20067;-70
2022/04/12 07:00:46;;;;;;;24.23;13.15;;;;;;;13.16;47.20;98711.56;5072760;28;20120;-69
2022/04/12 07:03:14;;;;;;;25.05;12.90;;;;;;;13.18;47.12;98706.84;5055770;28;20032;-72
2022/04/12 07:05:40;;;;;;;20.15;11.88;;;;;;;13.21;47.23;98711.78;5072505;28;20116;-70
2022/04/12 07:08:07;;;;;;;24.10;12.25;;;;;;;13.22;47.14;98726.75;5072269;28;20108;-74
2022/04/12 07:10:34;;;;;;;20.58;12.90;;;;;;;13.23;47.16;98717.75;5055930;28;20072;-72
2022/04/12 07:13:01;;;;;;;26.77;13.07;;;;;;;13.24;47.39;98708.72;5054978;28;20136;-74
2022/04/12 07:15:27;;;;;;;22.13;12.65;;;;;;;13.34;47.18;98716.38;5055947;28;20539;-71
2022/04/12 07:17:53;;;;;;;22.92;12.38;;;;;;;13.45;46.91;98732.63;5090097;28;20505;-72
2022/04/12 07:20:20;;;;;;;21.73;12.20;;;;;;;13.45;46.79;98723.81;5055973;28;20378;-74
2022/04/12 07:22:46;;;;;;;23.55;12.73;;;;;;;13.44;46.78;98709.66;5055853;28;20134;-73
2022/04/12 07:25:14;;;;;;;25.63;12.73;;;;;;;13.58;46.98;98722.03;5055513;28;20067;-73
2022/04/12 07:27:40;;;;;;;22.45;12.73;;;;;;;13.69;46.66;98722.47;5071931;28;20886;-73
2022/04/12 07:30:08;;;;;;;21.80;12.80;;;;;;;13.90;46.48;98731.16;5072445;28;20036;-74
2022/04/12 07:32:35;;;;;;;22.48;11.73;;;;;;;13.98;46.23;98738.16;5072087;28;20066;-74
2022/04/12 07:35:03;;;;;;;25.73;13.40;;;;;;;14.07;46.01;98739.66;5055242;28;20043;-73
2022/04/12 07:37:31;;;;;;;25.00;12.85;;;;;;;14.18;45.85;98744.38;5089150;28;20442;-73
2022/04/12 07:39:57;;;;;;;24.08;12.70;;;;;;;14.43;45.65;98742.81;5071881;28;20059;-73
2022/04/12 07:42:24;;;;;;;25.30;12.98;;;;;;;14.58;45.17;98746.94;5071617;28;20459;-69
2022/04/12 07:44:51;;;;;;;22.63;12.23;;;;;;;14.68;45.01;98751.88;5088846;28;20043;-73
2022/04/12 07:47:19;;;;;;;26.85;13.93;;;;;;;14.70;44.62;98761.31;5104145;28;20290;-73
2022/04/12 07:49:46;;;;;;;24.42;12.55;;;;;;;14.71;44.50;98751.47;5086126;28;20043;-73
2022/04/12 07:52:12;;;;;;;25.40;14.30;;;;;;;14.82;44.65;98764.22;5069520;28;20085;-73
2022/04/12 07:54:39;;;;;;;23.77;13.63;;;;;;;14.80;44.29;98761.75;5085310;28;20098;-73
2022/04/12 07:57:05;;;;;;;23.65;13.30;;;;;;;14.70;44.75;98760.50;5052820;28;20123;-73
2022/04/12 07:59:31;;;;;;;28.77;14.77;;;;;;;14.58;44.74;98746.09;5086316;28;20056;-73
2022/04/12 08:01:58;;;;;;;26.60;15.02;;;;;;;14.68;44.70;98770.59;5069437;28;20040;-72
2022/04/12 08:04:24;;;;;;;25.35;15.30;;;;;;;14.74;44.50;98767.91;5071480;28;20035;-73
2022/04/12 08:06:51;;;;;;;27.02;15.38;;;;;;;14.84;44.51;98762.97;5071785;28;20058;-71
2022/04/12 08:09:17;;;;;;;36.75;17.05;;;;;;;14.88;44.18;98755.38;5071755;28;20036;-73
2022/04/12 08:11:43;;;;;;;31.50;17.45;;;;;;;14.96;44.35;98753.28;5037226;28;20104;-72
2022/04/12 08:14:10;;;;;;;32.03;17.95;;;;;;;15.01;44.20;98741.97;5088544;28;20071;-74
2022/04/12 08:16:36;;;;;;;35.95;18.73;;;;;;;15.09;44.04;98752.47;5054474;28;20036;-73
2022/04/12 08:19:02;;;;;;;27.90;16.42;;;;;;;15.03;43.76;98729.22;5054595;28;20051;-73
2022/04/12 08:21:33;;;;;;;35.05;18.17;;;;;;;15.42;43.75;98750.59;5088178;28;20161;-73
2022/04/12 08:23:59;;;;;;;;;;;;;;;15.61;43.34;98748.84;5073170;28;20040;-73
2022/04/12 08:26:25;;;;;;;29.05;17.52;;;;;;;15.39;43.34;98731.44;5055246;28;20381;-72
2022/04/12 08:28:51;;;;;;;32.28;16.83;;;;;;;15.75;43.13;98739.75;5053490;28;20044;-72
2022/04/12 08:31:17;;;;;;;29.52;16.40;;;;;;;15.95;42.26;98743.16;5103612;28;20509;-73
2022/04/12 08:33:43;;;;;;;34.08;17.25;;;;;;;16.27;41.68;98753.69;5089172;28;20035;-73
2022/04/12 08:36:09;;;;;;;30.50;17.17;;;;;;;16.34;41.55;98750.97;5058096;28;20185;-73
2022/04/12 08:38:36;;;;;;;31.20;18.25;;;;;;;16.29;41.31;98730.19;5057284;28;20036;-73
2022/04/12 08:41:02;;;;;;;31.48;17.90;;;;;;;16.75;40.94;98744.09;5073549;28;20047;-73
2022/04/12 08:43:29;;;;;;;30.55;17.05;;;;;;;16.90;40.62;98756.38;5091970;28;20229;-73
2022/04/12 08:45:55;;;;;;;34.28;17.63;;;;;;;17.09;39.95;98748.13;5057817;28;20040;-73
2022/04/12 08:48:23;;;;;;;34.25;19.23;;;;;;;17.36;39.38;98730.72;5075184;28;20169;-73
2022/04/12 08:50:49;;;;;;;34.35;17.65;;;;;;;17.92;38.60;98739.38;5074022;28;20050;-73
2022/04/12 08:53:17;;;;;;;32.95;18.20;;;;;;;18.17;38.01;98729.28;5074026;28;20428;-74
2022/04/12 08:55:43;;;;;;;38.85;17.92;;;;;;;18.23;37.94;98735.63;5058214;28;20040;-74
2022/04/12 08:58:10;;;;;;;31.83;18.52;;;;;;;18.15;37.67;98706.41;5091423;28;20408;-75
2022/04/12 09:00:36;;;;;;;35.95;17.38;;;;;;;18.36;37.50;98740.81;5074314;28;20043;-74
2022/04/12 09:03:04;;;;;;;33.53;17.00;;;;;;;18.37;37.51;98737.94;5059090;28;20050;-75
2022/04/12 09:05:32;;;;;;;32.08;16.92;;;;;;;18.23;37.59;98717.66;5058642;28;20040;-74
2022/04/12 09:08:00;;;;;;;34.90;17.20;;;;;;;18.34;37.62;98729.50;5058570;28;20062;-74
2022/04/12 09:10:37;;;;;;;38.28;17.73;;;;;;;18.61;37.43;98746.06;5074491;28;20051;-74
2022/04/12 09:13:11;;;;;;;36.13;17.60;;;;;;;18.63;36.94;98747.47;5090392;28;20046;-74
2022/04/12 09:15:47;;;;;;;31.02;18.27;;;;;;;18.71;36.96;98757.09;5074572;28;20181;-75
2022/04/12 09:18:13;;;;;;;31.02;17.13;;;;;;;18.60;36.86;98755.19;5057468;28;20043;-74
2022/04/12 09:20:41;;;;;;;26.88;16.42;;;;;;;19.03;36.60;98729.63;5090831;28;20070;-75
2022/04/12 09:23:16;;;;;;;30.67;17.65;;;;;;;19.63;35.34;98747.19;5057283;28;20642;-75
2022/04/12 09:25:53;;;;;;;32.50;16.98;;;;;;;20.02;34.88;98762.53;5090401;28;20500;-74
2022/04/12 09:28:19;;;;;;;27.23;16.42;;;;;;;19.92;34.88;98748.03;5075445;28;20496;-73
2022/04/12 09:30:46;;;;;;;29.92;17.67;;;;;;;20.09;34.27;98747.03;5077290;28;20128;-73
2022/04/12 09:33:13;;;;;;;28.55;17.48;;;;;;;20.31;33.73;98741.00;5076704;28;20048;-75
2022/04/12 09:35:39;;;;;;;34.35;18.52;;;;;;;20.38;33.83;98744.34;5077220;28;20130;-70
2022/04/12 09:38:05;;;;;;;40.35;19.40;;;;;;;20.54;33.52;98747.09;5093056;28;20050;-71
2022/04/12 09:40:31;;;;;;;32.28;17.98;;;;;;;20.64;33.42;98746.44;5091609;28;20043;-71
2022/04/12 09:42:58;;;;;;;34.60;18.23;;;;;;;20.44;33.89;98719.09;5108584;28;20050;-72
2022/04/12 09:45:27;;;;;;;32.05;17.15;;;;;;;20.74;33.34;98747.41;5075188;28;20221;-73
2022/04/12 09:47:55;;;;;;;35.13;16.17;;;;;;;20.63;33.67;98761.00;5108881;28;20044;-73
2022/04/12 09:50:21;;;;;;;29.73;15.98;;;;;;;20.44;33.46;98737.97;5109105;28;20448;-73
2022/04/12 09:52:59;;;;;;;31.08;16.58;;;;;;;20.76;33.15;98763.34;5092868;28;20075;-75
2022/04/12 09:55:40;;;;;;;28.73;15.95;;;;;;;20.81;32.93;98768.84;5094604;28;20052;-73
2022/04/12 09:58:08;;;;;;;26.17;16.00;;;;;;;20.62;33.56;98768.25;5110826;28;20043;-72
2022/04/12 10:00:36;;;;;;;36.00;15.95;;;;;;;20.81;33.00;98766.16;5077219;28;20417;-74
2022/04/12 10:03:08;;;;;;;29.45;16.45;;;;;;;21.10;32.56;98773.13;5087637;28;20036;-74
2022/04/12 10:05:36;;;;;;;25.75;15.13;;;;;;;21.09;32.59;98758.84;5093020;28;20036;-73
2022/04/12 10:08:04;;;;;;;27.70;15.95;;;;;;;21.10;32.38;98771.28;5093871;28;20124;-75
2022/04/12 10:10:30;;;;;;;37.05;16.75;;;;;;;21.06;32.58;98764.75;5075923;28;20428;-74
2022/04/12 10:12:58;;;;;;;29.75;15.50;;;;;;;21.43;33.72;98765.81;5091715;28;20043;-72
2022/04/12 10:15:27;;;;;;;34.70;18.73;;;;;;;21.87;31.64;98784.81;5092271;28;20144;-73
2022/04/12 10:17:53;;;;;;;34.05;16.67;;;;;;;22.05;30.95;98779.91;5059501;28;20051;-73
2022/04/12 10:20:20;;;;;;;32.28;17.38;;;;;;;22.05;30.80;98755.56;5076013;28;20193;-73
2022/04/12 10:22:48;;;;;;;36.25;17.88;;;;;;;22.19;31.01;98770.34;5076339;28;20055;-73
2022/04/12 10:25:21;;;;;;;28.23;17.92;;;;;;;22.15;30.87;98788.16;5075779;28;20035;-75
2022/04/12 10:27:55;;;;;;;34.45;17.75;;;;;;;22.19;31.04;98783.88;5093252;28;20096;-75
2022/04/12 10:30:26;;;;;;;36.08;18.00;;;;;;;22.39;31.02;98775.97;5075541;28;20420;-74
2022/04/12 10:33:18;;;;;;;37.70;18.40;;;;;;;22.54;30.37;98780.78;5075465;28;20106;-74
2022/04/12 10:35:44;;;;;;;34.15;17.83;;;;;;;22.38;30.39;98782.47;5058784;28;20035;-73
2022/04/12 10:38:11;;;;;;;34.47;17.95;;;;;;;22.41;30.58;98781.13;5076145;28;20035;-73
2022/04/12 10:40:47;;;;;;;31.90;19.30;;;;;;;22.40;30.58;98774.91;5091202;28;20047;-74
2022/04/12 10:43:15;;;;;;;34.50;18.00;;;;;;;22.42;30.60;98764.66;5109759;28;20165;-74
2022/04/12 10:45:46;;;;;;;40.00;19.45;;;;;;;22.51;30.14;98767.75;5059100;28;20039;-74
2022/04/12 10:48:20;;;;;;;40.25;18.70;;;;;;;22.57;30.59;98766.72;5106379;28;20065;-75
2022/04/12 10:50:47;;;;;;;30.45;19.70;;;;;;;22.58;30.25;98763.78;5075632;28;20119;-73
2022/04/12 10:53:13;;;;;;;34.63;17.90;;;;;;;22.65;30.33;98764.38;5092091;28;20047;-74
2022/04/12 10:55:41;;;;;;;39.38;20.23;;;;;;;23.04;29.73;98771.22;5065231;28;20052;-73
2022/04/12 10:58:12;;;;;;;34.25;18.60;;;;;;;23.15;29.26;98770.22;5092345;28;20146;-74
2022/04/12 11:00:41;;;;;;;30.60;17.60;;;;;;;22.99;29.83;98763.03;5109381;28;20459;-74
2022/04/12 11:03:08;;;;;;;34.87;19.37;;;;;;;22.62;30.13;98759.47;5076370;28;20100;-74
2022/04/12 11:05:44;;;;;;;33.63;18.83;;;;;;;22.64;30.00;98748.38;5092366;28;20043;-73
2022/04/12 11:08:13;;;;;;;37.03;18.95;;;;;;;22.34;29.99;98707.47;5074925;28;20039;-75
2022/04/12 11:11:06;;;;;;;37.95;19.52;;;;;;;22.59;30.07;98742.91;5091481;28;20046;-74
2022/04/12 11:13:34;;;;;;;30.65;17.80;;;;;;;22.27;30.44;98694.16;5059539;28;20136;-74
2022/04/12 11:16:08;;;;;;;29.10;17.48;;;;;;;22.61;29.85;98722.66;5054134;28;20039;-74
2022/04/12 11:18:56;;;;;;;30.73;18.55;;;;;;;22.95;29.94;98737.56;5070444;28;20070;-73
2022/04/12 11:21:26;;;;;;;31.70;17.08;;;;;;;22.92;29.63;98713.72;5059650;28;20058;-73
2022/04/12 11:23:56;;;;;;;37.55;17.02;;;;;;;23.00;29.45;98734.09;5074225;28;20035;-73
2022/04/12 11:26:37;;;;;;;36.58;17.83;;;;;;;23.30;29.22;98734.31;5073358;28;20174;-73